Carrollton, AL (35447)

8:22 AM CDT on August 21, 2014 (GMT -0500)
Romulus Rd. | Change Station
CLOSE
Current Station
Personal Weather Station
Location: Coker, AL
Elevation: 225 ft
Nearby Weather Stations
Active Advisory: Heat Advisory

Elev 225 ft 33.24 °N, 87.69 °W | Updated 4 minutes ago

Clear
Clear
74.8 °F
Feels Like 72 °F
N
0.0
Wind Variable Wind from WSW

Today
High -- | Low -- °F
--% Chance of Precip.
Yesterday
High -- | Low -- °F
Precip. -- in
6:19 AM 7:31 PM
Waning Crescent, 14% visible
Pressure 30.13 in
Visibility 5.0 miles
Clouds Clear
Heat Index 72 °F
Dew Point 74 °F
Humidity 97%
Rainfall 0.00 in
Snow Depth Not available.
UV 0.0 out of 12
Pollen 8.40 out of 12
Air Quality Not available.
Flu Activity Not available.
METAR KTCL 211253Z 20003KT 5SM BR CLR 25/23 A3014 RMK AO2 SLP202 T02500233

More Conditions Fewer Conditions

Pressure 30.13 in
Visibility 5.0 miles
Clouds Clear
Heat Index 72 °F
Dew Point 74 °F
Humidity 97%
Rainfall 0.00 in
Snow Depth Not available.
UV 0.0 out of 12
Pollen 8.40 out of 12
Air Quality Not available.
Flu Activity Not available.
METAR KTCL 211253Z 20003KT 5SM BR CLR 25/23 A3014 RMK AO2 SLP202 T02500233

More Conditions Fewer Conditions

10-Day Weather Forecast

Almanac

Astronomy

Aug. 21, 2014 Rise Set
Actual Time 6:19 AM CDT 7:31 PM CDT
Civil Twilight 5:53 AM CDT 7:56 PM CDT
Nautical Twilight 5:22 AM CDT 8:27 PM CDT
Astronomical Twilight 4:50 AM CDT 8:59 PM CDT
Moon 2:54 AM CDT 4:55 PM CDT
Length of Visible Light 14h 03m
Length of Day
13h 11m
Tomorrow will be 1m 53s shorter.
Waning Crescent, 14% of the Moon is Illuminated
Today
Waning Crescent
Aug 25
New
Sep 2
First Quarter
Sep 8
Full
Sep 15
Last Quarter

Today's Extremes

State Highs State Lows

Community

WunderPhotos

Upload Photos

1,745,918 photos uploaded!

WunderBlogs® & News

By Dr. Jeff Masters
Director of Meteorology, Weather Underground
By Kari Strenfel
Meteorologist, Weather Underground
By Christopher C. Burt
Weather Historian, Weather Underground
August 21, 2014
August 21, 2014
August 21, 2014

Nearby

Snow Depth

Station Depth Elevation
No new snow has been reported.

Earthquake Activity

City Distance Mag. Time & Date
No recent earthquake activity has been reported nearby.
Minimum magnitude displayed is 2.5.

Coastal Water Temperatures

Place Temperature
No Stations Reporting

Nearby Weather Stations